Time;durP1;ratioP1;P1;durP2;ratioP2;P2;SDS_P1;SDS_P2;PMS_P1;PMS_P2;Temp;Humidity;BMP_temperature;BMP_pressure;BME280_temperature;BME280_humidity;BME280_pressure;Samples;Min_cycle;Max_cycle;Signal;HPM_P1;HPM_P2
2022/11/26 00:00:43;;;;;;;18.83;16.93;;;;;;;3.26;100.00;97840.09;5027071;28;20211;-71
2022/11/26 00:03:11;;;;;;;17.67;15.90;;;;;;;3.33;100.00;97841.25;4978017;28;20864;-69
2022/11/26 00:05:39;;;;;;;19.97;17.03;;;;;;;3.31;100.00;97847.59;5029807;28;21874;-71
2022/11/26 00:08:16;;;;;;;19.17;17.17;;;;;;;3.35;100.00;97849.00;5027002;28;20223;-72
2022/11/26 00:10:44;;;;;;;19.90;17.50;;;;;;;3.28;100.00;97848.66;5031622;28;20987;-68
2022/11/26 00:13:16;;;;;;;24.37;19.77;;;;;;;3.29;100.00;97854.72;5027235;28;20203;-69
2022/11/26 00:15:45;;;;;;;19.73;17.63;;;;;;;3.32;100.00;97859.72;5002354;28;20701;-68
2022/11/26 00:18:13;;;;;;;21.93;19.50;;;;;;;3.33;100.00;97862.22;4981195;28;20461;-70
2022/11/26 00:20:42;;;;;;;21.37;19.23;;;;;;;3.39;100.00;97855.66;5026843;28;20200;-70
2022/11/26 00:23:16;;;;;;;20.67;17.73;;;;;;;3.41;100.00;97866.00;5023797;28;20880;-71
2022/11/26 00:25:44;;;;;;;25.37;19.83;;;;;;;3.44;100.00;97869.22;5031358;28;20867;-69
2022/11/26 00:28:26;;;;;;;26.33;17.83;;;;;;;3.50;100.00;97867.91;5026922;28;20990;-71
2022/11/26 00:30:58;;;;;;;22.10;18.57;;;;;;;3.51;100.00;97864.34;5003566;28;20203;-70
2022/11/26 00:33:26;;;;;;;22.20;18.97;;;;;;;3.52;100.00;97860.75;5023578;28;20223;-71
2022/11/26 00:35:56;;;;;;;23.47;18.67;;;;;;;3.54;100.00;97866.72;4979592;28;20636;-69
2022/11/26 00:38:24;;;;;;;20.93;18.73;;;;;;;3.57;100.00;97874.31;5030322;28;20231;-71
2022/11/26 00:40:52;;;;;;;27.57;18.97;;;;;;;3.64;100.00;97876.44;5028797;28;20226;-70
2022/11/26 00:43:19;;;;;;;19.87;17.83;;;;;;;3.65;100.00;97884.22;5032328;28;20330;-71
2022/11/26 00:45:49;;;;;;;23.80;19.03;;;;;;;3.76;100.00;97886.78;5027453;28;20224;-68
2022/11/26 00:48:18;;;;;;;19.73;17.83;;;;;;;3.80;100.00;97892.63;5019560;28;20461;-68
2022/11/26 00:50:48;;;;;;;21.10;18.03;;;;;;;3.68;100.00;97893.59;4986961;28;20212;-69
2022/11/26 00:53:18;;;;;;;18.83;16.90;;;;;;;3.64;100.00;97898.25;5033791;28;20199;-72
2022/11/26 00:55:48;;;;;;;21.63;17.40;;;;;;;3.61;100.00;97896.72;5032957;28;20636;-69
2022/11/26 00:58:22;;;;;;;19.77;17.67;;;;;;;3.71;100.00;97895.97;5033043;28;20486;-69
2022/11/26 01:00:50;;;;;;;19.00;17.13;;;;;;;3.68;100.00;97901.47;5028439;28;20210;-66
2022/11/26 01:03:19;;;;;;;23.20;17.10;;;;;;;3.73;100.00;97894.91;5009516;28;20265;-72
2022/11/26 01:05:49;;;;;;;24.17;18.43;;;;;;;3.61;100.00;97898.50;4984811;28;20227;-70
2022/11/26 01:08:26;;;;;;;21.77;18.70;;;;;;;3.58;100.00;97910.06;5029574;28;20441;-70
2022/11/26 01:10:54;;;;;;;19.70;17.27;;;;;;;3.59;100.00;97905.63;5031429;28;20286;-67
2022/11/26 01:13:22;;;;;;;20.50;17.73;;;;;;;3.55;100.00;97910.31;5032697;28;20879;-71
2022/11/26 01:15:49;;;;;;;20.07;17.30;;;;;;;3.62;100.00;97916.72;5029376;28;20595;-71
2022/11/26 01:18:20;;;;;;;19.23;16.43;;;;;;;3.68;100.00;97920.66;5007391;28;20422;-71
2022/11/26 01:20:48;;;;;;;25.20;18.70;;;;;;;3.53;100.00;97927.09;4982155;28;20235;-67
2022/11/26 01:23:18;;;;;;;22.50;18.23;;;;;;;3.56;100.00;97925.06;5030102;28;20421;-67
2022/11/26 01:25:46;;;;;;;21.50;17.90;;;;;;;3.68;100.00;97935.53;5031699;28;20300;-68
2022/11/26 01:28:16;;;;;;;19.43;17.37;;;;;;;3.77;100.00;97934.78;5031723;28;20223;-68
2022/11/26 01:30:44;;;;;;;21.27;18.50;;;;;;;3.74;100.00;97932.41;5032290;28;20497;-69
2022/11/26 01:33:12;;;;;;;25.20;19.00;;;;;;;3.76;100.00;97939.22;5005082;28;20400;-71
2022/11/26 01:35:41;;;;;;;21.63;18.23;;;;;;;3.75;100.00;97941.94;4988828;28;20218;-72
2022/11/26 01:38:11;;;;;;;22.60;17.73;;;;;;;3.70;100.00;97934.47;5029141;28;20653;-71
2022/11/26 01:40:49;;;;;;;21.43;17.37;;;;;;;3.70;100.00;97929.22;4956928;28;20918;-66
2022/11/26 01:43:23;;;;;;;22.97;18.23;;;;;;;3.71;100.00;97930.88;5029524;28;20222;-70
2022/11/26 01:45:50;;;;;;;21.00;19.00;;;;;;;3.71;100.00;97935.28;5032256;28;20901;-70
2022/11/26 01:48:23;;;;;;;28.60;19.00;;;;;;;3.75;100.00;97932.31;5009988;28;20745;-71
2022/11/26 01:50:56;;;;;;;19.93;17.83;;;;;;;3.71;100.00;97928.28;5025346;28;20421;-71
2022/11/26 01:53:31;;;;;;;22.33;17.30;;;;;;;3.74;100.00;97941.13;5032488;28;20618;-70
2022/11/26 01:56:04;;;;;;;24.33;17.93;;;;;;;3.70;100.00;97950.19;4983158;28;20441;-69
2022/11/26 01:58:33;;;;;;;26.80;19.73;;;;;;;3.71;100.00;97945.75;5029527;28;20207;-68
2022/11/26 02:01:07;;;;;;;22.57;19.17;;;;;;;3.70;100.00;97947.56;5032081;28;20199;-69
2022/11/26 02:03:39;;;;;;;24.47;19.60;;;;;;;3.70;100.00;97946.72;5009098;28;20487;-68
2022/11/26 02:06:12;;;;;;;22.80;18.70;;;;;;;3.67;100.00;97947.81;5023023;28;20457;-71
2022/11/26 02:08:39;;;;;;;24.70;18.70;;;;;;;3.66;100.00;97947.91;5021326;28;20265;-68
2022/11/26 02:11:16;;;;;;;26.17;20.17;;;;;;;3.64;100.00;97953.31;4981322;28;20246;-70
2022/11/26 02:13:44;;;;;;;24.43;18.30;;;;;;;3.65;100.00;97947.09;5029002;28;20207;-70
2022/11/26 02:16:18;;;;;;;23.83;18.90;;;;;;;3.58;100.00;97951.13;5027873;28;20218;-69
2022/11/26 02:18:53;;;;;;;21.73;17.20;;;;;;;3.54;100.00;97955.81;5009053;28;20965;-68
2022/11/26 02:21:26;;;;;;;21.90;17.87;;;;;;;3.59;100.00;97955.44;5033737;28;20207;-69
2022/11/26 02:24:35;;;;;;;20.53;16.53;;;;;;;3.63;100.00;97951.63;5025021;28;20657;-70
2022/11/26 02:27:27;;;;;;;18.67;16.63;;;;;;;3.53;100.00;97953.28;4902209;28;20339;-71
2022/11/26 02:30:08;;;;;;;17.70;15.73;;;;;;;3.65;100.00;97946.25;4949919;28;20574;-71
2022/11/26 02:32:58;;;;;;;21.20;16.47;;;;;;;3.77;100.00;97955.75;5010051;28;20203;-70
2022/11/26 02:35:31;;;;;;;22.07;17.60;;;;;;;3.66;100.00;97953.16;5001645;28;20975;-69
2022/11/26 02:38:02;;;;;;;22.37;17.67;;;;;;;3.61;100.00;97958.78;5031384;28;20457;-70
2022/11/26 02:40:30;;;;;;;24.30;18.57;;;;;;;3.63;100.00;97962.13;5030621;28;20627;-69
2022/11/26 02:42:57;;;;;;;22.37;17.43;;;;;;;3.62;100.00;97960.44;4983518;28;20384;-70
2022/11/26 02:45:29;;;;;;;19.93;17.17;;;;;;;3.66;100.00;97969.75;5014966;28;20203;-68
2022/11/26 02:47:59;;;;;;;20.67;17.50;;;;;;;3.58;100.00;97965.09;5029928;28;20251;-70
2022/11/26 02:50:31;;;;;;;20.60;16.67;;;;;;;3.54;100.00;97954.97;4999185;28;20223;-69
2022/11/26 02:52:59;;;;;;;18.37;16.33;;;;;;;3.58;100.00;97966.88;5032608;28;20249;-71
2022/11/26 02:55:30;;;;;;;20.80;16.73;;;;;;;3.62;100.00;97968.31;5031628;28;20215;-69
2022/11/26 02:57:58;;;;;;;18.03;15.67;;;;;;;3.64;100.00;97974.28;4983853;28;20238;-70
2022/11/26 03:00:27;;;;;;;22.03;16.90;;;;;;;3.67;100.00;97981.03;5027936;28;20400;-69
2022/11/26 03:03:00;;;;;;;19.13;17.13;;;;;;;3.68;100.00;97983.56;5030457;28;20437;-70
2022/11/26 03:05:31;;;;;;;23.77;18.00;;;;;;;3.70;100.00;97986.88;5007101;28;20203;-69
2022/11/26 03:07:59;;;;;;;20.40;17.27;;;;;;;3.76;100.00;97991.63;5032472;28;20228;-70
2022/11/26 03:10:29;;;;;;;20.80;17.00;;;;;;;3.76;100.00;97990.78;5031469;28;20606;-71
2022/11/26 03:12:56;;;;;;;20.40;18.20;;;;;;;3.86;100.00;97988.28;4989337;28;20748;-70
2022/11/26 03:15:24;;;;;;;24.00;18.10;;;;;;;3.86;100.00;97994.38;5024967;28;20219;-68
2022/11/26 03:17:53;;;;;;;26.13;19.77;;;;;;;3.85;100.00;97994.47;5029068;28;20482;-69
2022/11/26 03:20:21;;;;;;;24.50;18.93;;;;;;;3.82;100.00;97998.19;5004102;28;20215;-68
2022/11/26 03:22:48;;;;;;;20.07;17.97;;;;;;;3.96;100.00;97998.88;5024572;28;20508;-71
2022/11/26 03:25:16;;;;;;;22.47;17.70;;;;;;;3.90;100.00;98003.66;5033385;28;20199;-70
2022/11/26 03:27:44;;;;;;;22.33;18.53;;;;;;;3.90;100.00;98003.66;5028057;28;20551;-71
2022/11/26 03:30:12;;;;;;;24.83;18.13;;;;;;;3.94;100.00;98000.78;4988323;28;20226;-70
2022/11/26 03:32:40;;;;;;;22.43;18.57;;;;;;;3.90;100.00;98003.66;5020825;28;20207;-70
2022/11/26 03:35:09;;;;;;;28.03;21.37;;;;;;;3.94;100.00;98006.84;5030958;28;20199;-70
2022/11/26 03:37:37;;;;;;;25.60;19.90;;;;;;;3.97;100.00;98003.16;5004054;28;20357;-68
2022/11/26 03:40:06;;;;;;;20.97;18.67;;;;;;;3.94;100.00;97999.00;5028501;28;20212;-72
2022/11/26 03:42:34;;;;;;;20.50;18.27;;;;;;;3.82;100.00;97995.56;5025295;28;20576;-69
2022/11/26 03:45:01;;;;;;;21.83;17.93;;;;;;;3.87;100.00;98003.06;4984722;28;20223;-70
2022/11/26 03:47:29;;;;;;;21.73;18.07;;;;;;;3.92;100.00;97998.28;4971874;28;21373;-72
2022/11/26 03:49:57;;;;;;;26.03;17.97;;;;;;;3.83;100.00;98004.25;5000853;28;20212;-70
2022/11/26 03:52:26;;;;;;;21.87;19.00;;;;;;;3.82;100.00;98003.44;5026318;28;20203;-71
2022/11/26 03:54:53;;;;;;;25.27;18.43;;;;;;;3.84;100.00;98008.53;5008142;28;20214;-69
2022/11/26 03:57:21;;;;;;;21.10;17.47;;;;;;;3.87;100.00;98013.53;5023263;28;20218;-71
2022/11/26 03:59:49;;;;;;;23.90;18.07;;;;;;;3.87;100.00;98018.78;5028226;28;20536;-71
2022/11/26 04:02:16;;;;;;;25.93;19.30;;;;;;;3.84;100.00;98019.88;4979946;28;20822;-71
2022/11/26 04:04:44;;;;;;;20.57;18.37;;;;;;;3.79;100.00;98024.66;5028204;28;20501;-72
2022/11/26 04:07:12;;;;;;;24.17;18.03;;;;;;;3.88;100.00;98025.69;5023377;28;20234;-72
2022/11/26 04:09:41;;;;;;;20.10;17.73;;;;;;;3.90;100.00;98026.41;5003799;28;20285;-70
2022/11/26 04:12:08;;;;;;;25.37;19.83;;;;;;;3.80;100.00;98028.09;5027422;28;20460;-71
2022/11/26 04:14:36;;;;;;;22.97;19.03;;;;;;;3.89;100.00;98024.75;4995658;28;20231;-71
2022/11/26 04:17:04;;;;;;;20.90;17.47;;;;;;;3.95;100.00;98026.06;5021299;28;21170;-74
2022/11/26 04:19:32;;;;;;;21.20;17.63;;;;;;;3.94;100.00;98035.69;4939118;28;20211;-72
2022/11/26 04:21:59;;;;;;;23.60;18.10;;;;;;;3.89;100.00;98043.09;5028789;28;20595;-74
2022/11/26 04:24:27;;;;;;;21.13;17.97;;;;;;;3.83;100.00;98046.22;5018309;28;20204;-72
2022/11/26 04:26:56;;;;;;;23.20;17.97;;;;;;;3.83;100.00;98047.06;5012117;28;20603;-73
2022/11/26 04:29:24;;;;;;;21.57;17.83;;;;;;;3.96;100.00;98054.78;5029195;28;20482;-73
2022/11/26 04:31:52;;;;;;;21.50;18.67;;;;;;;4.04;100.00;98052.41;5030802;28;20226;-74
2022/11/26 04:34:19;;;;;;;20.53;18.03;;;;;;;3.95;100.00;98055.72;4982681;28;20243;-73
2022/11/26 04:36:47;;;;;;;20.27;17.33;;;;;;;3.95;100.00;98054.91;4998418;28;20507;-73
2022/11/26 04:39:15;;;;;;;21.10;16.90;;;;;;;4.00;100.00;98056.22;5027954;28;20268;-73
2022/11/26 04:41:43;;;;;;;21.67;17.07;;;;;;;4.06;100.00;98062.75;5004669;28;20239;-71
2022/11/26 04:44:12;;;;;;;20.60;16.97;;;;;;;3.95;100.00;98062.78;5022595;28;20209;-72
2022/11/26 04:46:39;;;;;;;20.40;17.47;;;;;;;3.93;100.00;98059.44;5027198;28;20579;-72
2022/11/26 04:49:07;;;;;;;20.80;17.07;;;;;;;3.91;100.00;98070.88;5034179;28;20220;-72
2022/11/26 04:51:35;;;;;;;21.40;18.00;;;;;;;3.95;100.00;98074.06;4955102;28;20733;-71
2022/11/26 04:54:02;;;;;;;19.33;17.33;;;;;;;4.07;100.00;98080.16;5032719;28;20723;-72
2022/11/26 04:56:35;;;;;;;20.40;17.93;;;;;;;4.12;100.00;98096.34;5001264;28;20231;-72
2022/11/26 04:59:02;;;;;;;23.03;18.10;;;;;;;4.16;100.00;98096.97;5031386;28;20609;-71
2022/11/26 05:01:31;;;;;;;19.33;17.30;;;;;;;4.09;100.00;98095.78;5023244;28;20211;-71
2022/11/26 05:03:59;;;;;;;19.93;17.73;;;;;;;4.08;100.00;98100.19;5021728;28;20199;-72
2022/11/26 05:06:27;;;;;;;18.47;16.53;;;;;;;4.10;100.00;98107.94;4972036;28;20231;-70
2022/11/26 05:08:55;;;;;;;19.03;16.53;;;;;;;4.10;100.00;98107.94;5018137;28;20584;-72
2022/11/26 05:11:22;;;;;;;22.33;17.73;;;;;;;4.16;100.00;98115.31;5008924;28;20239;-73
2022/11/26 05:13:50;;;;;;;18.90;16.90;;;;;;;4.14;100.00;98107.56;5022584;28;20205;-73
2022/11/26 05:16:17;;;;;;;18.23;16.43;;;;;;;4.22;100.00;98114.84;5033020;28;20211;-72
2022/11/26 05:18:46;;;;;;;21.10;16.30;;;;;;;4.30;100.00;98116.88;5023075;28;20793;-72
2022/11/26 05:21:14;;;;;;;18.40;16.53;;;;;;;4.37;100.00;98119.84;4978247;28;20207;-73
2022/11/26 05:23:41;;;;;;;19.57;17.63;;;;;;;4.37;100.00;98114.59;4999133;28;20214;-73
2022/11/26 05:26:09;;;;;;;18.67;16.00;;;;;;;4.27;100.00;98120.56;4999254;28;20327;-74
2022/11/26 05:28:37;;;;;;;17.67;15.67;;;;;;;4.23;100.00;98113.06;5029040;28;20623;-71
2022/11/26 05:31:05;;;;;;;19.77;17.67;;;;;;;4.14;100.00;98112.81;5029366;28;20242;-73
2022/11/26 05:33:33;;;;;;;20.17;16.83;;;;;;;4.01;100.00;98097.22;5026029;28;20230;-71
2022/11/26 05:36:02;;;;;;;18.63;16.07;;;;;;;4.01;100.00;98105.09;5024017;28;20514;-73
2022/11/26 05:38:29;;;;;;;16.20;14.43;;;;;;;4.04;100.00;98111.88;4912019;28;20364;-73
2022/11/26 05:40:57;;;;;;;17.30;15.73;;;;;;;4.00;100.00;98105.19;4990324;28;20359;-70
2022/11/26 05:43:25;;;;;;;16.43;14.77;;;;;;;3.96;100.00;98114.25;5022584;28;20204;-72
2022/11/26 05:45:52;;;;;;;17.67;15.53;;;;;;;3.94;100.00;98124.84;5028035;28;20614;-71
2022/11/26 05:48:20;;;;;;;18.40;16.47;;;;;;;4.05;100.00;98132.75;5021103;28;20235;-73
2022/11/26 05:50:48;;;;;;;16.60;15.00;;;;;;;4.10;100.00;98127.13;5023561;28;20589;-71
2022/11/26 05:53:22;;;;;;;17.57;15.97;;;;;;;3.98;100.00;98128.09;4953222;28;20208;-71
2022/11/26 05:55:50;;;;;;;18.20;15.07;;;;;;;3.89;100.00;98125.22;4938789;28;20701;-72
2022/11/26 05:58:17;;;;;;;19.53;14.93;;;;;;;3.90;100.00;98128.66;5031270;28;20637;-72
2022/11/26 06:00:45;;;;;;;15.63;14.03;;;;;;;4.04;100.00;98133.69;5029395;28;20269;-74
2022/11/26 06:03:13;;;;;;;17.90;14.82;;;;;;;4.08;100.00;98138.69;5005995;28;20456;-73
2022/11/26 06:05:46;;;;;;;16.77;14.20;;;;;;;4.11;100.00;98143.72;5013084;28;20330;-73
2022/11/26 06:08:14;;;;;;;17.93;15.13;;;;;;;4.00;100.00;98144.53;5020506;28;20255;-70
2022/11/26 06:10:43;;;;;;;17.53;15.70;;;;;;;3.99;100.00;98143.72;4976911;28;20215;-73
2022/11/26 06:13:11;;;;;;;18.83;15.70;;;;;;;3.97;100.00;98150.03;5021675;28;20212;-71
2022/11/26 06:15:38;;;;;;;18.30;15.20;;;;;;;4.02;100.00;98147.88;4993894;28;22252;-73
2022/11/26 06:18:06;;;;;;;17.58;15.77;;;;;;;3.96;100.00;98158.84;4995833;28;21559;-71
2022/11/26 06:20:34;;;;;;;16.03;14.37;;;;;;;3.85;100.00;98146.53;4999311;28;20675;-74
2022/11/26 06:23:02;;;;;;;17.97;16.17;;;;;;;3.61;100.00;98161.41;5024374;28;20631;-72
2022/11/26 06:25:29;;;;;;;16.90;15.10;;;;;;;3.58;100.00;98164.25;4967738;28;20381;-73
2022/11/26 06:27:58;;;;;;;16.17;14.27;;;;;;;3.54;100.00;98161.97;5021938;28;20243;-71
2022/11/26 06:30:26;;;;;;;18.37;16.43;;;;;;;3.50;100.00;98163.16;5008702;28;20208;-72
2022/11/26 06:32:54;;;;;;;24.07;20.73;;;;;;;3.42;100.00;98169.00;4987139;28;20775;-72
2022/11/26 06:35:21;;;;;;;28.57;22.30;;;;;;;3.40;100.00;98171.72;5032579;28;20367;-72
2022/11/26 06:37:49;;;;;;;20.83;18.03;;;;;;;3.45;100.00;98171.38;5027003;28;20234;-73
2022/11/26 06:40:19;;;;;;;22.33;19.67;;;;;;;3.48;100.00;98166.72;5025498;28;20297;-72
2022/11/26 06:42:50;;;;;;;24.03;19.60;;;;;;;3.55;100.00;98169.72;4976739;28;20686;-71
2022/11/26 06:45:19;;;;;;;22.60;18.37;;;;;;;3.64;100.00;98160.34;5017991;28;20445;-73
2022/11/26 06:47:48;;;;;;;21.90;16.77;;;;;;;3.62;100.00;98178.78;5013079;28;20223;-72
2022/11/26 06:50:17;;;;;;;16.47;14.80;;;;;;;3.73;100.00;98174.53;5006241;28;20532;-72
2022/11/26 06:52:45;;;;;;;19.17;17.17;;;;;;;3.81;100.00;98176.56;5014230;28;20226;-71
2022/11/26 06:55:13;;;;;;;19.50;16.63;;;;;;;3.71;100.00;98187.75;5008617;28;20231;-72
2022/11/26 06:57:41;;;;;;;18.93;15.07;;;;;;;3.83;100.00;98191.25;4969634;28;20341;-72
2022/11/26 07:00:09;;;;;;;17.07;15.43;;;;;;;3.90;100.00;98197.69;5026444;28;21305;-71
2022/11/26 07:02:38;;;;;;;18.07;16.23;;;;;;;3.98;100.00;98202.38;5024708;28;20433;-72
2022/11/26 07:05:06;;;;;;;18.30;16.40;;;;;;;4.04;100.00;98203.66;4996877;28;20646;-71
2022/11/26 07:07:36;;;;;;;16.27;14.77;;;;;;;4.13;100.00;98207.38;5030089;28;20228;-73
2022/11/26 07:10:05;;;;;;;17.07;15.47;;;;;;;4.14;100.00;98209.03;5026374;28;20606;-71
2022/11/26 07:12:32;;;;;;;18.77;16.97;;;;;;;3.99;100.00;98209.28;4998066;28;20749;-74
2022/11/26 07:15:00;;;;;;;26.13;16.27;;;;;;;3.86;100.00;98217.22;5014672;28;20204;-72
2022/11/26 07:17:28;;;;;;;20.87;14.57;;;;;;;4.07;100.00;98218.34;5027083;28;20231;-71
2022/11/26 07:19:57;;;;;;;19.50;14.40;;;;;;;4.19;100.00;98213.00;4984875;28;20211;-70
2022/11/26 07:22:25;;;;;;;21.73;14.43;;;;;;;4.28;100.00;98221.09;5027126;28;20211;-72
2022/11/26 07:24:52;;;;;;;17.33;14.07;;;;;;;4.32;100.00;98217.28;5017088;28;20208;-71
2022/11/26 07:27:20;;;;;;;14.27;12.77;;;;;;;4.42;100.00;98220.03;5008910;28;20228;-73
2022/11/26 07:29:47;;;;;;;16.37;12.30;;;;;;;4.49;100.00;98223.84;4973857;28;20306;-70
2022/11/26 07:32:15;;;;;;;15.30;13.80;;;;;;;4.64;100.00;98234.94;5007317;28;20431;-69
2022/11/26 07:34:43;;;;;;;17.43;13.83;;;;;;;4.69;100.00;98240.66;4986884;28;20212;-72
2022/11/26 07:37:12;;;;;;;18.63;14.43;;;;;;;4.73;100.00;98241.25;5021979;28;20445;-69
2022/11/26 07:39:39;;;;;;;16.37;12.83;;;;;;;4.77;100.00;98234.81;5005906;28;20207;-72
2022/11/26 07:42:07;;;;;;;19.37;13.47;;;;;;;4.91;100.00;98244.19;5009563;28;20258;-72
2022/11/26 07:44:34;;;;;;;18.73;13.53;;;;;;;4.80;100.00;98238.97;4969515;28;20215;-71
2022/11/26 07:47:03;;;;;;;17.73;14.13;;;;;;;4.78;100.00;98239.09;5024622;28;20225;-71
2022/11/26 07:49:30;;;;;;;15.70;13.90;;;;;;;4.83;100.00;98233.47;5029974;28;20238;-72
2022/11/26 07:51:58;;;;;;;26.53;14.87;;;;;;;5.05;100.00;98237.84;4999691;28;20208;-71
2022/11/26 07:54:27;;;;;;;16.07;13.77;;;;;;;5.26;100.00;98244.97;5013083;28;20219;-72
2022/11/26 07:56:55;;;;;;;16.57;14.83;;;;;;;5.38;100.00;98243.97;5012626;28;20223;-71
2022/11/26 07:59:22;;;;;;;14.50;13.10;;;;;;;5.33;100.00;98252.25;4981062;28;20912;-72
2022/11/26 08:01:50;;;;;;;15.70;14.10;;;;;;;5.27;100.00;98257.97;5030975;28;20842;-70
2022/11/26 08:04:18;;;;;;;15.67;13.63;;;;;;;5.22;100.00;98254.88;4972161;28;20302;-72
2022/11/26 08:06:45;;;;;;;20.37;14.87;;;;;;;5.21;100.00;98261.94;5012105;28;20528;-72
2022/11/26 08:09:13;;;;;;;16.07;14.37;;;;;;;5.14;100.00;98258.16;5010701;28;20228;-71
2022/11/26 08:11:42;;;;;;;16.83;15.17;;;;;;;5.24;100.00;98265.28;5009468;28;20204;-71
2022/11/26 08:14:11;;;;;;;17.13;14.80;;;;;;;5.12;100.00;98272.34;5013604;28;20204;-72
2022/11/26 08:16:39;;;;;;;20.73;14.47;;;;;;;5.07;100.00;98265.69;5001392;28;20224;-71
2022/11/26 08:19:11;;;;;;;16.53;14.53;;;;;;;5.07;100.00;98273.56;4942987;28;20210;-72
2022/11/26 08:21:39;;;;;;;16.33;14.07;;;;;;;5.10;100.00;98269.03;5030519;28;20514;-71
2022/11/26 08:24:08;;;;;;;15.17;13.23;;;;;;;5.11;100.00;98271.50;5005912;28;20219;-70
2022/11/26 08:26:35;;;;;;;13.90;12.60;;;;;;;5.10;100.00;98264.59;4980668;28;20458;-70
2022/11/26 08:29:11;;;;;;;17.20;13.70;;;;;;;5.12;100.00;98269.72;5011368;28;20224;-69
2022/11/26 08:31:40;;;;;;;17.70;13.60;;;;;;;5.28;100.00;98269.34;5010530;28;20666;-70
2022/11/26 08:34:15;;;;;;;16.37;14.00;;;;;;;5.41;100.00;98266.56;4996701;28;20208;-70
2022/11/26 08:36:43;;;;;;;16.90;14.27;;;;;;;5.30;100.00;98257.75;5018107;28;20959;-70
2022/11/26 08:39:12;;;;;;;16.73;14.97;;;;;;;5.43;100.00;98265.47;5005867;28;20654;-70
2022/11/26 08:41:40;;;;;;;19.17;14.10;;;;;;;5.40;100.00;98270.16;5003997;28;20212;-70
2022/11/26 08:44:08;;;;;;;14.40;12.87;;;;;;;5.33;100.00;98273.28;5010839;28;20204;-69
2022/11/26 08:46:38;;;;;;;17.30;12.73;;;;;;;5.29;100.00;98273.63;5008840;28;20664;-70
2022/11/26 08:49:09;;;;;;;15.00;12.77;;;;;;;5.35;100.00;98274.00;5008363;28;20527;-71
2022/11/26 08:51:40;;;;;;;15.23;12.30;;;;;;;5.49;100.00;98285.16;4990959;28;20204;-70
2022/11/26 08:54:07;;;;;;;19.13;13.07;;;;;;;5.43;100.00;98281.22;5014742;28;20216;-72
2022/11/26 08:56:35;;;;;;;15.97;13.23;;;;;;;5.43;100.00;98283.84;4985131;28;20662;-73
2022/11/26 08:59:03;;;;;;;14.00;12.53;;;;;;;5.46;100.00;98285.41;5016156;28;20208;-72
2022/11/26 09:01:32;;;;;;;17.17;13.57;;;;;;;5.42;100.00;98290.06;5008510;28;20230;-74
2022/11/26 09:04:03;;;;;;;16.43;13.93;;;;;;;5.36;100.00;98291.44;5013749;28;20206;-74
2022/11/26 09:06:32;;;;;;;15.97;13.97;;;;;;;5.26;100.00;98305.41;4971976;28;20232;-75
2022/11/26 09:09:13;;;;;;;14.10;12.60;;;;;;;5.29;100.00;98310.44;5030674;28;20273;-71
2022/11/26 09:11:44;;;;;;;21.23;12.73;;;;;;;5.19;100.00;98305.91;4998358;28;20203;-72
2022/11/26 09:14:12;;;;;;;14.07;12.67;;;;;;;5.20;100.00;98307.59;5011464;28;20266;-72
2022/11/26 09:16:40;;;;;;;15.53;12.63;;;;;;;5.35;100.00;98305.53;5023186;28;20437;-72
2022/11/26 09:19:11;;;;;;;15.13;13.20;;;;;;;5.60;100.00;98319.28;5028222;28;20291;-71
2022/11/26 09:21:39;;;;;;;17.40;13.53;;;;;;;5.89;100.00;98317.91;4980118;28;21151;-74
2022/11/26 09:24:07;;;;;;;17.47;13.97;;;;;;;6.05;100.00;98320.97;5003674;28;20215;-72
2022/11/26 09:26:35;;;;;;;14.83;12.90;;;;;;;6.17;100.00;98318.25;4999158;28;20679;-72
2022/11/26 09:29:03;;;;;;;18.37;11.57;;;;;;;6.05;100.00;98323.59;5023775;28;20717;-71
2022/11/26 09:31:31;;;;;;;16.47;12.50;;;;;;;5.91;100.00;98322.06;5030839;28;20231;-72
2022/11/26 09:34:00;;;;;;;14.07;10.77;;;;;;;6.00;100.00;98325.75;5003729;28;20616;-72
2022/11/26 09:36:29;;;;;;;14.00;10.77;;;;;;;5.74;100.00;98326.06;4982014;28;20431;-71
2022/11/26 09:38:58;;;;;;;13.53;11.40;;;;;;;5.81;100.00;98331.69;5028117;28;20200;-72
2022/11/26 09:41:38;;;;;;;14.67;11.70;;;;;;;5.85;100.00;98329.59;5019227;28;20231;-71
2022/11/26 09:44:21;;;;;;;11.10;10.10;;;;;;;5.92;100.00;98334.25;4988284;28;20238;-71
2022/11/26 09:46:56;;;;;;;11.67;10.47;;;;;;;5.82;100.00;98337.75;5028617;28;20227;-72
2022/11/26 09:49:47;;;;;;;11.10;10.07;;;;;;;5.77;100.00;98341.59;4996063;28;20440;-74
2022/11/26 09:52:18;;;;;;;11.60;10.47;;;;;;;5.87;100.00;98340.84;4985355;28;20231;-71
2022/11/26 09:54:47;;;;;;;12.13;10.57;;;;;;;5.84;100.00;98344.56;5017001;28;20276;-71
2022/11/26 09:57:20;;;;;;;14.30;10.27;;;;;;;5.81;100.00;98339.56;4999527;28;20730;-70
2022/11/26 09:59:49;;;;;;;10.83;9.73;;;;;;;5.97;100.00;98341.78;5001964;28;20211;-69
2022/11/26 10:02:17;;;;;;;13.23;10.90;;;;;;;6.23;100.00;98347.53;4995723;28;20216;-72
2022/11/26 10:04:46;;;;;;;10.53;9.57;;;;;;;6.43;100.00;98339.75;4993837;28;20211;-72
2022/11/26 10:07:29;;;;;;;11.60;8.93;;;;;;;6.43;100.00;98326.59;5009786;28;20247;-72
2022/11/26 10:10:02;;;;;;;10.33;9.27;;;;;;;6.54;100.00;98328.31;4990512;28;20235;-73
2022/11/26 10:12:38;;;;;;;10.63;9.27;;;;;;;6.84;100.00;98331.94;4999249;28;20204;-73
2022/11/26 10:15:31;;;;;;;10.17;8.43;;;;;;;6.98;100.00;98316.75;5011730;28;20219;-74
2022/11/26 10:18:06;;;;;;;10.83;9.80;;;;;;;7.42;100.00;98312.03;4999784;28;20827;-74
2022/11/26 10:20:50;;;;;;;13.17;9.83;;;;;;;7.39;100.00;98310.50;5010981;28;20207;-73
2022/11/26 10:23:25;;;;;;;10.67;8.20;;;;;;;7.51;100.00;98308.56;5015499;28;20204;-72
2022/11/26 10:25:55;;;;;;;9.43;8.57;;;;;;;7.31;100.00;98298.94;4977538;28;20203;-73
2022/11/26 10:28:26;;;;;;;8.93;8.00;;;;;;;6.95;100.00;98302.03;5027459;28;20917;-72
2022/11/26 10:30:57;;;;;;;7.90;7.13;;;;;;;7.06;100.00;98293.22;4999922;28;20231;-71
2022/11/26 10:33:27;;;;;;;9.67;8.83;;;;;;;7.29;100.00;98292.97;4986539;28;20211;-69
2022/11/26 10:35:55;;;;;;;7.67;6.93;;;;;;;7.24;100.00;98293.41;4986705;28;20869;-71
2022/11/26 10:38:24;;;;;;;7.40;6.70;;;;;;;6.89;100.00;98284.16;5002528;28;20232;-70
2022/11/26 10:40:52;;;;;;;9.73;8.73;;;;;;;6.98;100.00;98290.38;4994913;28;20669;-71
2022/11/26 10:43:22;;;;;;;7.87;6.93;;;;;;;6.57;100.00;98290.38;5028915;28;20791;-70
2022/11/26 10:45:51;;;;;;;10.10;6.63;;;;;;;6.44;100.00;98291.44;4983662;28;20207;-71
2022/11/26 10:48:23;;;;;;;9.10;7.80;;;;;;;6.30;100.00;98289.13;5005179;28;20630;-70
2022/11/26 10:50:59;;;;;;;8.33;7.53;;;;;;;6.13;100.00;98291.38;4985205;28;21005;-71
2022/11/26 10:53:31;;;;;;;12.40;8.47;;;;;;;6.10;100.00;98304.81;5032436;28;20207;-72
2022/11/26 10:56:00;;;;;;;9.63;7.87;;;;;;;5.96;100.00;98298.00;4968947;28;20679;-74
2022/11/26 10:58:30;;;;;;;9.57;8.57;;;;;;;5.93;100.00;98304.34;5028089;28;20228;-73
2022/11/26 11:01:01;;;;;;;8.03;7.30;;;;;;;5.79;100.00;98302.84;5001385;28;20944;-73
2022/11/26 11:03:31;;;;;;;8.37;7.53;;;;;;;5.81;100.00;98300.13;5006015;28;20211;-74
2022/11/26 11:06:38;;;;;;;9.83;7.40;;;;;;;5.82;100.00;98301.78;5010691;28;20669;-72
2022/11/26 11:09:25;;;;;;;8.77;7.97;;;;;;;6.01;100.00;98311.66;5021527;28;21757;-72
2022/11/26 11:12:24;;;;;;;9.10;8.20;;;;;;;6.33;100.00;98299.38;4965015;28;22112;-71
2022/11/26 11:14:52;;;;;;;9.73;8.83;;;;;;;6.66;100.00;98293.06;4902989;28;20226;-71
2022/11/26 11:17:35;;;;;;;9.50;8.33;;;;;;;6.79;100.00;98278.81;5007817;28;20810;-69
2022/11/26 11:20:23;;;;;;;8.97;8.17;;;;;;;6.90;100.00;98281.34;4989406;28;20331;-71
2022/11/26 11:22:57;;;;;;;10.60;8.10;;;;;;;6.90;100.00;98276.09;4965734;28;20222;-73
2022/11/26 11:25:29;;;;;;;10.10;9.17;;;;;;;7.03;100.00;98282.94;5008168;28;20223;-72
2022/11/26 11:28:01;;;;;;;10.27;8.47;;;;;;;7.33;100.00;98278.53;4962584;28;20220;-72
2022/11/26 11:30:31;;;;;;;8.10;7.30;;;;;;;7.51;100.00;98282.19;4999595;28;20219;-74
2022/11/26 11:33:11;;;;;;;9.63;7.40;;;;;;;7.49;100.00;98272.75;5000429;28;20806;-72